Eastpointe, Michigan
Current Conditions -  °F | °C
As of 4:53 PM on Saturday 25 Oct 2014 (Local Time) from KDET Reporting Station
Clear Clear  
Wind Chill: 70°   Ceiling: Unl
Heat Index: 70°   Visibility: 10mi
Dew Point: 38°   Wind: 17mph
Humidity: 31%   Direction: 280°W
Pressure: 29.71"   Gusts: 35mph
Location:  42.47°N, 82.96°W
Report Text: KDET 252053Z 28015G30KT 10SM CLR 21/03 A2971 RMK AO2 PK WND 27030/2049 SLP061 T02110033 56019
Loading
Personal Weather Stations






























Interactive Weather Map
Tropical Storm Tracking
New forecast layout! Learn more

10-Day Weather Forecast

Advertisements
Track Severe Weather on mobile